Time;durP1;ratioP1;P1;durP2;ratioP2;P2;SDS_P1;SDS_P2;PMS_P1;PMS_P2;Temp;Humidity;BMP_temperature;BMP_pressure;BME280_temperature;BME280_humidity;BME280_pressure;Samples;Min_cycle;Max_cycle;Signal;HPM_P1;HPM_P2
2022/10/27 00:01:20;;;;;;;31.45;9.98;;;14.00;99.90;;;;;;5051977;28;20047;-74
2022/10/27 00:03:49;;;;;;;37.38;10.20;;;14.00;99.90;;;;;;5051346;28;20096;-74
2022/10/27 00:06:15;;;;;;;38.00;11.27;;;13.90;99.90;;;;;;5044564;28;20023;-74
2022/10/27 00:08:40;;;;;;;60.72;13.05;;;13.80;99.90;;;;;;5033969;28;20017;-75
2022/10/27 00:11:06;;;;;;;50.35;12.70;;;13.80;99.90;;;;;;5033802;28;20396;-74
2022/10/27 00:13:32;;;;;;;52.80;11.80;;;13.70;99.90;;;;;;5033887;28;20029;-74
2022/10/27 00:16:04;;;;;;;60.63;14.50;;;13.60;99.90;;;;;;5023374;28;20025;-74
2022/10/27 00:18:30;;;;;;;43.45;13.50;;;13.60;99.90;;;;;;5033738;28;20033;-74
2022/10/27 00:21:16;;;;;;;50.00;15.18;;;13.50;99.90;;;;;;5042891;28;20029;-74
2022/10/27 00:23:42;;;;;;;53.92;14.82;;;13.50;99.90;;;;;;5053852;28;20021;-74
2022/10/27 00:26:11;;;;;;;61.72;13.10;;;13.50;99.90;;;;;;5045435;28;20028;-74
2022/10/27 00:28:37;;;;;;;63.25;14.32;;;13.50;99.90;;;;;;5034331;28;20109;-74
2022/10/27 00:31:11;;;;;;;49.78;13.82;;;13.40;99.90;;;;;;5032593;28;20116;-74
2022/10/27 00:33:36;;;;;;;37.70;13.05;;;13.40;99.90;;;;;;5053892;28;20025;-75
2022/10/27 00:36:06;;;;;;;50.38;14.80;;;13.40;99.90;;;;;;5053837;28;20067;-74
2022/10/27 00:38:32;;;;;;;50.08;14.68;;;13.30;99.90;;;;;;5037390;28;20026;-74
2022/10/27 00:40:58;;;;;;;46.75;12.77;;;13.30;99.90;;;;;;5033171;28;20071;-74
2022/10/27 00:43:33;;;;;;;55.78;14.15;;;13.20;99.90;;;;;;5035570;28;20469;-74
2022/10/27 00:46:03;;;;;;;45.20;12.82;;;13.40;99.90;;;;;;5037475;28;20033;-74
2022/10/27 00:48:31;;;;;;;55.78;14.23;;;13.30;99.90;;;;;;5037730;28;20021;-74
2022/10/27 00:51:00;;;;;;;41.28;12.35;;;13.30;99.90;;;;;;5037767;28;20030;-74
2022/10/27 00:53:26;;;;;;;47.00;14.00;;;13.20;99.90;;;;;;5037271;28;20025;-74
2022/10/27 00:55:52;;;;;;;53.05;14.65;;;13.20;99.90;;;;;;5037282;28;20036;-74
2022/10/27 00:58:18;;;;;;;65.28;13.98;;;13.30;99.90;;;;;;5036976;28;20025;-74
2022/10/27 01:00:44;;;;;;;43.03;13.40;;;13.20;99.90;;;;;;5037078;28;20029;-73
2022/10/27 01:03:15;;;;;;;42.85;11.73;;;13.30;99.90;;;;;;5040922;28;20100;-74
2022/10/27 01:05:42;;;;;;;65.00;14.63;;;13.30;99.90;;;;;;5057308;28;20060;-74
2022/10/27 01:08:08;;;;;;;59.83;13.80;;;13.20;99.90;;;;;;5056926;28;20104;-74
2022/10/27 01:10:34;;;;;;;69.95;12.13;;;13.20;99.90;;;;;;5038937;28;20075;-74
2022/10/27 01:12:59;;;;;;;62.58;11.88;;;13.30;99.90;;;;;;5057173;28;20028;-74
2022/10/27 01:15:40;;;;;;;48.50;12.25;;;13.30;99.90;;;;;;5053461;28;20025;-74
2022/10/27 01:18:58;;;;;;;54.92;10.50;;;13.20;99.90;;;;;;5046566;28;20039;-74
2022/10/27 01:22:01;;;;;;;56.75;10.20;;;13.20;99.90;;;;;;4985968;28;20465;-74
2022/10/27 01:24:47;;;;;;;68.45;11.98;;;13.20;99.90;;;;;;5054293;28;20029;-74
2022/10/27 01:27:43;;;;;;;64.20;9.65;;;13.30;99.90;;;;;;5034047;28;20028;-74
2022/10/27 01:30:22;;;;;;;53.83;10.35;;;13.20;99.90;;;;;;5037585;28;20115;-74
2022/10/27 01:33:09;;;;;;;59.70;10.48;;;13.20;99.90;;;;;;5036488;28;20053;-74
2022/10/27 01:35:53;;;;;;;53.92;9.45;;;13.20;99.90;;;;;;5036872;28;20025;-75
2022/10/27 01:38:31;;;;;;;70.53;9.93;;;13.10;99.90;;;;;;5036960;28;20163;-75
2022/10/27 01:41:02;;;;;;;52.50;10.77;;;13.10;99.90;;;;;;5032592;28;20037;-74
2022/10/27 01:43:30;;;;;;;60.92;10.88;;;13.10;99.90;;;;;;5056306;28;20376;-75
2022/10/27 01:45:57;;;;;;;54.88;10.60;;;13.00;99.90;;;;;;5051038;28;20029;-74
2022/10/27 01:48:22;;;;;;;69.95;12.77;;;12.90;99.90;;;;;;5036646;28;20485;-75
2022/10/27 01:50:48;;;;;;;66.57;9.65;;;12.90;99.90;;;;;;5036345;28;20025;-75
2022/10/27 01:53:14;;;;;;;68.43;13.02;;;12.90;99.90;;;;;;5036204;28;20029;-75
2022/10/27 01:56:04;;;;;;;59.00;11.82;;;12.80;99.90;;;;;;5035157;28;20029;-75
2022/10/27 01:58:41;;;;;;;50.35;9.85;;;12.70;99.90;;;;;;5036553;28;20029;-75
2022/10/27 02:01:34;;;;;;;43.65;8.60;;;12.70;99.90;;;;;;5036290;28;20021;-75
2022/10/27 02:04:12;;;;;;;70.47;10.07;;;12.60;99.90;;;;;;5036235;28;20022;-74
2022/10/27 02:06:44;;;;;;;61.33;9.93;;;12.50;99.90;;;;;;5036061;28;20060;-75
2022/10/27 02:09:17;;;;;;;50.80;8.02;;;12.50;99.90;;;;;;5042569;28;20415;-75
2022/10/27 02:11:46;;;;;;;59.88;11.25;;;12.40;99.90;;;;;;5035263;28;20060;-74
2022/10/27 02:14:12;;;;;;;50.97;10.05;;;12.30;99.90;;;;;;5034337;28;20041;-74
2022/10/27 02:16:44;;;;;;;73.30;12.20;;;12.30;99.90;;;;;;5035813;28;20039;-75
2022/10/27 02:19:19;;;;;;;69.38;11.07;;;12.40;99.90;;;;;;5035948;28;20095;-75
2022/10/27 02:21:46;;;;;;;57.25;12.32;;;12.50;99.90;;;;;;5035910;28;20018;-74
2022/10/27 02:24:12;;;;;;;73.40;12.32;;;12.70;99.90;;;;;;5035611;28;20021;-74
2022/10/27 02:26:43;;;;;;;56.60;10.95;;;12.80;99.90;;;;;;5035577;28;20021;-75
2022/10/27 02:29:17;;;;;;;60.35;10.57;;;12.80;99.90;;;;;;5035877;28;20053;-75
2022/10/27 02:31:47;;;;;;;60.67;11.00;;;12.70;99.90;;;;;;5035670;28;20029;-75
2022/10/27 02:34:15;;;;;;;62.13;10.82;;;12.70;99.90;;;;;;5035434;28;20025;-75
2022/10/27 02:36:40;;;;;;;60.15;10.60;;;12.70;99.90;;;;;;5035709;28;20033;-75
2022/10/27 02:39:06;;;;;;;53.40;11.32;;;12.50;99.90;;;;;;5035303;28;20481;-74
2022/10/27 02:41:31;;;;;;;61.67;10.25;;;12.50;99.90;;;;;;5033918;28;20028;-74
2022/10/27 02:43:57;;;;;;;44.17;8.32;;;12.50;99.90;;;;;;5035849;28;20024;-74
2022/10/27 02:46:23;;;;;;;51.85;9.88;;;12.50;99.90;;;;;;5035155;28;20503;-75
2022/10/27 02:48:48;;;;;;;59.03;10.57;;;12.40;99.90;;;;;;5035370;28;20035;-75
2022/10/27 02:51:14;;;;;;;72.78;11.00;;;12.40;99.90;;;;;;5035074;28;20025;-75
2022/10/27 02:53:39;;;;;;;47.63;11.70;;;12.40;99.90;;;;;;5035099;28;20072;-75
2022/10/27 02:56:06;;;;;;;58.10;10.88;;;12.50;99.90;;;;;;5034958;28;20105;-75
2022/10/27 02:58:32;;;;;;;80.82;12.27;;;12.50;99.90;;;;;;5024407;28;20026;-74
2022/10/27 03:00:57;;;;;;;66.68;11.82;;;12.40;99.90;;;;;;5041967;28;20124;-75
2022/10/27 03:03:23;;;;;;;67.78;10.05;;;12.40;99.90;;;;;;5054892;28;20036;-75
2022/10/27 03:05:48;;;;;;;55.78;11.15;;;12.40;99.90;;;;;;5054448;28;20055;-75
2022/10/27 03:08:14;;;;;;;68.97;10.38;;;12.50;99.90;;;;;;5055169;28;20029;-75
2022/10/27 03:10:39;;;;;;;60.08;9.52;;;12.50;99.90;;;;;;5036670;28;20274;-75
2022/10/27 03:13:05;;;;;;;75.50;11.70;;;12.50;99.90;;;;;;5036826;28;20511;-75
2022/10/27 03:15:31;;;;;;;58.22;9.75;;;12.60;99.90;;;;;;5047800;28;20025;-75
2022/10/27 03:17:58;;;;;;;73.72;10.60;;;12.50;99.90;;;;;;5046281;28;20022;-75
2022/10/27 03:20:24;;;;;;;79.85;10.25;;;12.60;99.90;;;;;;5034942;28;20034;-74
2022/10/27 03:22:49;;;;;;;60.70;9.15;;;12.50;99.90;;;;;;5026376;28;20492;-75
2022/10/27 03:25:15;;;;;;;65.22;10.23;;;12.40;99.90;;;;;;5054680;28;20021;-75
2022/10/27 03:27:42;;;;;;;62.95;9.70;;;12.50;99.90;;;;;;5054420;28;20021;-75
2022/10/27 03:30:10;;;;;;;67.05;9.60;;;12.50;99.90;;;;;;5054446;28;20024;-75
2022/10/27 03:32:35;;;;;;;75.55;12.75;;;12.50;99.90;;;;;;5054392;28;20021;-75
2022/10/27 03:35:01;;;;;;;55.58;9.30;;;12.50;99.90;;;;;;5045462;28;20028;-75
2022/10/27 03:37:26;;;;;;;52.83;10.35;;;12.50;99.90;;;;;;5034450;28;20022;-74
2022/10/27 03:39:52;;;;;;;51.35;10.55;;;12.50;99.90;;;;;;5034308;28;20033;-75
2022/10/27 03:42:18;;;;;;;77.60;12.57;;;12.50;99.90;;;;;;5034383;28;20527;-75
2022/10/27 03:44:43;;;;;;;48.10;12.07;;;12.50;99.90;;;;;;5034104;28;20025;-75
2022/10/27 03:47:09;;;;;;;72.82;12.40;;;12.50;99.90;;;;;;5034207;28;20473;-75
2022/10/27 03:49:34;;;;;;;53.67;13.00;;;12.50;99.90;;;;;;5034645;28;20029;-75
2022/10/27 03:52:00;;;;;;;78.35;11.57;;;12.70;99.90;;;;;;5033769;28;20034;-75
2022/10/27 03:54:29;;;;;;;53.38;10.38;;;12.60;99.90;;;;;;5032979;28;20029;-74
2022/10/27 03:56:54;;;;;;;54.30;10.73;;;12.50;99.90;;;;;;5034276;28;20037;-75
2022/10/27 03:59:20;;;;;;;51.20;10.80;;;12.40;99.90;;;;;;5033877;28;20037;-75
2022/10/27 04:01:46;;;;;;;57.47;12.27;;;12.30;99.90;;;;;;5066737;23;20041;-74
2022/10/27 04:04:11;;;;;;;75.72;13.20;;;12.30;99.90;;;;;;5074031;28;20024;-74
2022/10/27 04:06:37;;;;;;;58.38;10.70;;;12.20;99.90;;;;;;5074360;28;20028;-74
2022/10/27 04:09:02;;;;;;;58.80;11.15;;;12.10;99.90;;;;;;5073784;28;20028;-74
2022/10/27 04:11:28;;;;;;;47.53;12.27;;;12.00;99.90;;;;;;5073718;28;20039;-74
2022/10/27 04:13:53;;;;;;;65.85;12.20;;;12.10;99.90;;;;;;5073832;28;20032;-74
2022/10/27 04:16:19;;;;;;;47.20;13.00;;;12.10;99.90;;;;;;5073724;28;20041;-74
2022/10/27 04:18:45;;;;;;;59.50;13.27;;;12.20;99.90;;;;;;5076682;28;20028;-74
2022/10/27 04:21:11;;;;;;;68.18;14.15;;;12.30;99.90;;;;;;5078242;28;20017;-74
2022/10/27 04:23:36;;;;;;;60.08;13.43;;;12.20;99.90;;;;;;5077811;28;20024;-74
2022/10/27 04:26:02;;;;;;;50.38;13.48;;;12.20;99.90;;;;;;5078032;28;20025;-74
2022/10/27 04:28:28;;;;;;;64.72;12.68;;;12.30;99.90;;;;;;5077904;28;20100;-74
2022/10/27 04:30:53;;;;;;;50.80;12.85;;;12.30;99.90;;;;;;5077910;28;20464;-74
2022/10/27 04:33:19;;;;;;;64.75;15.50;;;12.10;99.90;;;;;;5077563;28;20056;-73
2022/10/27 04:35:44;;;;;;;68.57;13.70;;;12.10;99.90;;;;;;5077575;28;20029;-73
2022/10/27 04:38:10;;;;;;;66.50;16.20;;;12.00;99.90;;;;;;5077561;28;20119;-74
2022/10/27 04:40:36;;;;;;;63.47;14.88;;;11.90;99.90;;;;;;5077436;28;20029;-73
2022/10/27 04:43:01;;;;;;;62.03;15.88;;;11.90;99.90;;;;;;5077313;28;20443;-74
2022/10/27 04:45:27;;;;;;;63.10;15.25;;;11.90;99.90;;;;;;5076139;28;20466;-74
2022/10/27 04:47:52;;;;;;;59.60;12.98;;;11.90;99.90;;;;;;5077589;28;20029;-74
2022/10/27 04:50:18;;;;;;;49.67;12.73;;;11.80;99.90;;;;;;5077757;28;20029;-74
2022/10/27 04:52:58;;;;;;;50.60;13.98;;;11.80;99.90;;;;;;5077658;28;20025;-74
2022/10/27 04:55:25;;;;;;;56.17;13.65;;;11.80;99.90;;;;;;5077216;28;20029;-73
2022/10/27 04:57:50;;;;;;;46.08;13.80;;;11.80;99.90;;;;;;5077306;28;20111;-73
2022/10/27 05:00:17;;;;;;;67.40;15.10;;;11.70;99.90;;;;;;5077402;28;20063;-74
2022/10/27 05:02:43;;;;;;;63.28;15.02;;;11.70;99.90;;;;;;5076968;28;20028;-74
2022/10/27 05:05:08;;;;;;;53.95;14.02;;;11.80;99.90;;;;;;5077301;28;20027;-74
2022/10/27 05:07:34;;;;;;;62.42;13.68;;;11.70;99.90;;;;;;5077102;28;20025;-74
2022/10/27 05:09:59;;;;;;;53.60;12.75;;;11.70;99.90;;;;;;5076838;28;20033;-74
2022/10/27 05:12:25;;;;;;;75.47;14.43;;;11.60;99.90;;;;;;5076872;28;20031;-73
2022/10/27 05:14:50;;;;;;;71.93;15.95;;;11.60;99.90;;;;;;5076827;28;20121;-73
2022/10/27 05:17:16;;;;;;;72.13;14.75;;;11.50;99.90;;;;;;5077107;28;20035;-74
2022/10/27 05:19:44;;;;;;;42.88;11.95;;;11.50;99.90;;;;;;5076776;28;20467;-74
2022/10/27 05:22:10;;;;;;;65.32;14.38;;;11.40;99.90;;;;;;5076586;28;20033;-74
2022/10/27 05:24:35;;;;;;;42.38;12.50;;;11.40;99.90;;;;;;5076553;28;20055;-73
2022/10/27 05:27:01;;;;;;;73.80;13.98;;;11.30;99.90;;;;;;5076799;28;20021;-74
2022/10/27 05:29:26;;;;;;;61.88;14.25;;;11.30;99.90;;;;;;5076476;28;20074;-73
2022/10/27 05:31:52;;;;;;;47.10;14.88;;;11.20;99.90;;;;;;5076614;28;20029;-74
2022/10/27 05:34:18;;;;;;;56.38;17.13;;;11.20;99.90;;;;;;5076749;28;20028;-74
2022/10/27 05:36:43;;;;;;;60.08;15.43;;;11.30;99.90;;;;;;5076502;28;20468;-73
2022/10/27 05:39:09;;;;;;;62.25;14.75;;;11.20;99.90;;;;;;5076337;28;20032;-73
2022/10/27 05:41:34;;;;;;;64.85;15.35;;;11.10;99.90;;;;;;5076785;28;20020;-73
2022/10/27 05:44:00;;;;;;;50.70;17.10;;;11.10;99.90;;;;;;5076299;28;20104;-74
2022/10/27 05:46:25;;;;;;;64.40;18.67;;;10.90;99.90;;;;;;5076223;28;20074;-74
2022/10/27 05:48:51;;;;;;;62.58;18.65;;;11.00;99.90;;;;;;5074974;28;20487;-74
2022/10/27 05:51:16;;;;;;;70.72;20.13;;;11.00;99.90;;;;;;5076175;28;20032;-74
2022/10/27 05:53:42;;;;;;;61.22;20.17;;;11.00;99.90;;;;;;5076413;28;20029;-73
2022/10/27 05:56:07;;;;;;;67.20;21.17;;;11.10;99.90;;;;;;5076148;28;20082;-74
2022/10/27 05:58:33;;;;;;;56.15;19.95;;;10.90;99.90;;;;;;5076262;28;20029;-73
2022/10/27 06:00:59;;;;;;;64.35;21.45;;;10.90;99.90;;;;;;5058190;28;20031;-73
2022/10/27 06:03:25;;;;;;;75.97;22.52;;;10.90;99.90;;;;;;5076058;28;20537;-74
2022/10/27 06:05:52;;;;;;;78.00;21.48;;;10.90;99.90;;;;;;5076322;28;20017;-74
2022/10/27 06:08:20;;;;;;;73.95;22.13;;;10.90;99.90;;;;;;5076732;28;20020;-74
2022/10/27 06:10:46;;;;;;;58.63;20.23;;;10.90;99.90;;;;;;5076250;28;20028;-74
2022/10/27 06:13:13;;;;;;;49.55;20.30;;;10.90;99.90;;;;;;5075882;28;20029;-74
2022/10/27 06:15:39;;;;;;;49.42;21.08;;;10.90;99.90;;;;;;5057909;28;20067;-74
2022/10/27 06:18:05;;;;;;;68.00;23.63;;;10.90;99.90;;;;;;5075671;28;20067;-74
2022/10/27 06:20:31;;;;;;;74.85;23.48;;;11.00;99.90;;;;;;5076073;28;20023;-73
2022/10/27 06:22:56;;;;;;;69.63;24.67;;;10.90;99.90;;;;;;5076747;28;20492;-73
2022/10/27 06:25:22;;;;;;;78.35;27.23;;;10.90;99.90;;;;;;5077073;28;20016;-74
2022/10/27 06:27:47;;;;;;;84.82;25.98;;;10.90;99.90;;;;;;5076325;28;20431;-73
2022/10/27 06:30:13;;;;;;;72.32;26.75;;;11.00;99.90;;;;;;5076449;28;20479;-74
2022/10/27 06:32:39;;;;;;;88.50;28.45;;;11.00;99.90;;;;;;5057486;28;20028;-74
2022/10/27 06:35:05;;;;;;;74.45;27.75;;;11.00;99.90;;;;;;5075715;28;20024;-74
2022/10/27 06:37:31;;;;;;;100.05;31.27;;;11.00;99.90;;;;;;5057435;28;20023;-74
2022/10/27 06:39:56;;;;;;;71.63;29.13;;;11.10;99.90;;;;;;5074949;28;20115;-74
2022/10/27 06:42:23;;;;;;;110.32;31.02;;;11.20;99.90;;;;;;5074825;28;20533;-74
2022/10/27 06:44:49;;;;;;;76.38;28.95;;;11.20;99.90;;;;;;5075058;28;20020;-74
2022/10/27 06:47:15;;;;;;;72.40;28.63;;;11.20;99.90;;;;;;5075141;28;20049;-73
2022/10/27 06:49:40;;;;;;;87.60;31.75;;;11.30;99.90;;;;;;5075045;28;20059;-74
2022/10/27 06:52:06;;;;;;;82.72;31.50;;;11.40;99.90;;;;;;5075215;28;20040;-73
2022/10/27 06:54:32;;;;;;;99.68;34.25;;;11.40;99.90;;;;;;5071266;28;20084;-75
2022/10/27 06:56:57;;;;;;;95.05;32.67;;;11.40;99.90;;;;;;5064521;28;20081;-75
2022/10/27 06:59:23;;;;;;;88.07;34.55;;;11.50;99.90;;;;;;5071193;28;20054;-75
2022/10/27 07:01:48;;;;;;;107.55;33.67;;;11.50;99.90;;;;;;5059674;28;20037;-76
2022/10/27 07:04:14;;;;;;;101.38;36.33;;;11.60;99.90;;;;;;5067793;28;20024;-75
2022/10/27 07:06:39;;;;;;;87.97;35.17;;;11.60;99.90;;;;;;5056579;28;20074;-74
2022/10/27 07:09:05;;;;;;;89.28;35.28;;;11.70;99.90;;;;;;5074774;28;20097;-74
2022/10/27 07:11:30;;;;;;;121.68;40.92;;;11.70;99.90;;;;;;5063204;28;20037;-74
2022/10/27 07:13:56;;;;;;;95.40;36.55;;;11.70;99.90;;;;;;5072195;28;20029;-75
2022/10/27 07:16:21;;;;;;;97.43;35.70;;;11.70;99.90;;;;;;5073171;28;20396;-75
2022/10/27 07:18:47;;;;;;;93.38;36.85;;;11.70;99.90;;;;;;5055188;28;20025;-75
2022/10/27 07:21:14;;;;;;;123.70;40.13;;;11.70;99.90;;;;;;5056155;28;20028;-74
2022/10/27 07:23:39;;;;;;;93.03;35.13;;;11.80;99.90;;;;;;5054413;28;20017;-75
2022/10/27 07:26:05;;;;;;;111.63;36.80;;;11.80;99.90;;;;;;5070832;28;20025;-74
2022/10/27 07:28:31;;;;;;;103.95;37.55;;;11.80;99.90;;;;;;5056453;28;20055;-74
2022/10/27 07:30:56;;;;;;;96.07;37.40;;;11.80;99.90;;;;;;5072923;28;20016;-74
2022/10/27 07:33:22;;;;;;;101.07;40.20;;;11.80;99.90;;;;;;5061714;28;20074;-74
2022/10/27 07:35:52;;;;;;;90.05;36.45;;;11.80;99.90;;;;;;5064789;28;20383;-74
2022/10/27 07:38:18;;;;;;;89.70;37.85;;;11.80;99.90;;;;;;5060330;28;20025;-74
2022/10/27 07:40:44;;;;;;;83.20;33.72;;;11.90;99.90;;;;;;5064196;28;20023;-74
2022/10/27 07:43:10;;;;;;;100.50;36.80;;;11.90;99.90;;;;;;5062397;28;20024;-74
2022/10/27 07:45:37;;;;;;;111.15;38.38;;;11.90;99.90;;;;;;5074100;28;20012;-74
2022/10/27 07:48:04;;;;;;;109.70;39.63;;;11.90;99.90;;;;;;5058000;28;20044;-74
2022/10/27 07:50:32;;;;;;;97.80;36.08;;;12.00;99.90;;;;;;5062056;28;20032;-74
2022/10/27 07:52:59;;;;;;;77.25;31.90;;;12.00;99.90;;;;;;5069755;28;20028;-75
2022/10/27 07:55:26;;;;;;;96.32;39.13;;;12.10;99.90;;;;;;5062983;28;20029;-74
2022/10/27 07:57:59;;;;;;;94.88;36.78;;;12.10;99.90;;;;;;5072517;28;20039;-75
2022/10/27 08:00:25;;;;;;;105.53;37.50;;;12.20;99.90;;;;;;5054909;28;20024;-78
2022/10/27 08:02:50;;;;;;;87.32;33.13;;;12.20;99.90;;;;;;5053999;28;20450;-74
2022/10/27 08:05:16;;;;;;;104.95;36.85;;;12.30;99.90;;;;;;5065595;28;20021;-75
2022/10/27 08:07:41;;;;;;;100.07;36.67;;;12.40;99.90;;;;;;5066091;28;20051;-73
2022/10/27 08:10:08;;;;;;;81.50;35.10;;;12.60;99.90;;;;;;5067054;28;20104;-73
2022/10/27 08:12:40;;;;;;;94.10;35.72;;;12.70;99.90;;;;;;5072694;28;20009;-75
2022/10/27 08:15:06;;;;;;;91.38;36.22;;;12.90;99.90;;;;;;5065894;28;20025;-74
2022/10/27 08:17:32;;;;;;;95.70;37.85;;;12.90;99.90;;;;;;5067287;28;20036;-75
2022/10/27 08:19:57;;;;;;;95.60;38.55;;;12.90;99.90;;;;;;5065400;28;20039;-74
2022/10/27 08:22:23;;;;;;;68.32;30.48;;;13.00;99.90;;;;;;5064464;28;20028;-74
2022/10/27 08:24:48;;;;;;;93.38;32.90;;;13.00;99.90;;;;;;5057212;28;20029;-75
2022/10/27 08:27:14;;;;;;;88.00;34.25;;;13.00;99.90;;;;;;5073473;28;20055;-73
2022/10/27 08:29:39;;;;;;;82.05;33.65;;;13.10;99.90;;;;;;5057710;28;20037;-75
2022/10/27 08:32:06;;;;;;;73.68;32.70;;;13.10;99.90;;;;;;5055704;28;20519;-75
2022/10/27 08:34:31;;;;;;;76.28;31.48;;;13.10;99.90;;;;;;5070084;28;20039;-74
2022/10/27 08:36:57;;;;;;;91.07;32.42;;;13.20;99.90;;;;;;5062431;28;20024;-74
2022/10/27 08:39:22;;;;;;;67.55;28.95;;;13.20;99.90;;;;;;5051090;28;20468;-74
2022/10/27 08:42:06;;;;;;;60.22;28.27;;;13.30;99.90;;;;;;5070368;28;20047;-74
2022/10/27 08:44:47;;;;;;;71.57;28.25;;;13.40;99.90;;;;;;5072941;28;20511;-74
2022/10/27 08:47:19;;;;;;;80.30;28.85;;;13.50;99.90;;;;;;5068652;28;20052;-74
2022/10/27 08:49:59;;;;;;;81.72;29.23;;;13.60;99.90;;;;;;5061360;28;20028;-74
2022/10/27 08:52:33;;;;;;;71.57;27.48;;;13.70;99.90;;;;;;5072875;28;20020;-74
2022/10/27 08:55:22;;;;;;;60.75;25.35;;;13.80;99.90;;;;;;5067889;28;20044;-74
2022/10/27 08:58:39;;;;;;;66.47;24.85;;;13.70;99.90;;;;;;5069386;28;20515;-74
2022/10/27 09:01:07;;;;;;;63.70;24.13;;;13.80;99.90;;;;;;4992252;28;20039;-72
2022/10/27 09:04:04;;;;;;;61.53;25.65;;;13.90;99.90;;;;;;4990831;28;20120;-71
2022/10/27 09:06:34;;;;;;;57.78;22.50;;;13.90;99.90;;;;;;5039040;28;20066;-71
2022/10/27 09:09:27;;;;;;;60.70;23.50;;;14.00;99.90;;;;;;5041807;28;20025;-70
2022/10/27 09:12:18;;;;;;;54.35;23.05;;;14.10;99.90;;;;;;5076901;28;20031;-73
2022/10/27 09:15:13;;;;;;;55.70;23.88;;;14.20;99.90;;;;;;5068822;28;20028;-74
2022/10/27 09:17:44;;;;;;;56.33;21.55;;;14.20;99.90;;;;;;5057172;28;20025;-74
2022/10/27 09:20:42;;;;;;;54.58;20.70;;;14.30;99.90;;;;;;5056914;28;20021;-75
2022/10/27 09:23:15;;;;;;;52.45;21.60;;;14.60;99.90;;;;;;5052579;28;20112;-75
2022/10/27 09:25:42;;;;;;;48.60;21.98;;;14.60;99.90;;;;;;5047059;28;20075;-71
2022/10/27 09:28:30;;;;;;;61.30;20.55;;;14.60;99.90;;;;;;5072370;28;20037;-75
2022/10/27 09:30:57;;;;;;;59.90;22.02;;;14.60;99.90;;;;;;5046774;28;20353;-77
2022/10/27 09:33:28;;;;;;;46.88;18.83;;;14.70;99.90;;;;;;5070361;28;20016;-73
2022/10/27 09:35:54;;;;;;;47.40;20.08;;;14.80;99.90;;;;;;5073824;28;20017;-73
2022/10/27 09:38:23;;;;;;;54.42;19.10;;;15.00;99.90;;;;;;5073860;28;20488;-73
2022/10/27 09:40:51;;;;;;;44.25;19.67;;;15.30;99.90;;;;;;5074742;28;20035;-72
2022/10/27 09:43:18;;;;;;;38.30;18.13;;;15.40;99.90;;;;;;5070828;28;20060;-72
2022/10/27 09:45:44;;;;;;;39.50;17.08;;;15.30;99.90;;;;;;5062699;28;20066;-71
2022/10/27 09:48:18;;;;;;;38.55;16.60;;;15.30;99.90;;;;;;5074402;28;20035;-71
2022/10/27 09:50:58;;;;;;;;;;;15.20;99.90;;;;;;5072619;28;20472;-72
2022/10/27 09:53:46;;;;;;;38.88;16.08;;;15.40;99.90;;;;;;5069371;28;19939;-70
2022/10/27 09:56:35;;;;;;;44.00;16.27;;;15.50;99.90;;;;;;5069926;28;20432;-73
2022/10/27 09:59:03;;;;;;;38.50;15.63;;;15.60;99.90;;;;;;5051528;28;20039;-72
2022/10/27 10:01:58;;;;;;;40.40;14.73;;;15.60;99.90;;;;;;5074819;28;20066;-72
2022/10/27 10:04:28;;;;;;;53.38;16.48;;;15.60;99.90;;;;;;5074292;28;20027;-72
2022/10/27 10:07:00;;;;;;;39.50;11.73;;;15.90;99.90;;;;;;5070955;28;20055;-72
2022/10/27 10:09:30;;;;;;;31.85;13.82;;;16.10;99.90;;;;;;5075539;28;20032;-72
2022/10/27 10:12:20;;;;;;;30.77;11.02;;;16.30;99.90;;;;;;5076043;28;20028;-72
2022/10/27 10:14:46;;;;;;;27.30;11.80;;;16.50;99.90;;;;;;5075344;28;20033;-72
2022/10/27 10:17:24;;;;;;;28.00;11.40;;;16.40;99.90;;;;;;5057260;28;20032;-72
2022/10/27 10:19:54;;;;;;;37.10;11.32;;;16.40;99.90;;;;;;5076267;28;20426;-72
2022/10/27 10:22:29;;;;;;;29.63;10.60;;;16.70;99.90;;;;;;5077026;28;20013;-72
2022/10/27 10:24:57;;;;;;;25.00;10.25;;;16.90;99.90;;;;;;5059035;28;20029;-72
2022/10/27 10:27:29;;;;;;;28.75;10.02;;;17.00;99.90;;;;;;5076893;28;20042;-72
2022/10/27 10:29:58;;;;;;;30.13;9.98;;;17.00;99.90;;;;;;5076496;28;20031;-72
2022/10/27 10:32:30;;;;;;;32.75;9.65;;;16.90;99.90;;;;;;5075386;28;20047;-72
2022/10/27 10:34:56;;;;;;;26.23;8.65;;;17.00;99.90;;;;;;5075543;28;20083;-72
2022/10/27 10:37:36;;;;;;;34.92;8.85;;;17.00;99.90;;;;;;5075156;28;20024;-73
2022/10/27 10:40:24;;;;;;;25.75;9.50;;;17.10;99.90;;;;;;5075290;28;20037;-73
2022/10/27 10:43:01;;;;;;;25.45;8.65;;;17.10;99.90;;;;;;5075643;28;20028;-73
2022/10/27 10:45:29;;;;;;;23.63;7.82;;;17.10;99.90;;;;;;5075576;28;20029;-73
2022/10/27 10:47:58;;;;;;;18.88;7.95;;;17.10;99.90;;;;;;5073973;28;20070;-73
2022/10/27 10:50:26;;;;;;;17.10;7.25;;;17.20;99.90;;;;;;5075381;28;20024;-72
2022/10/27 10:52:53;;;;;;;18.45;7.18;;;17.30;99.90;;;;;;5075383;28;20036;-73
2022/10/27 10:55:22;;;;;;;19.42;7.70;;;17.40;99.90;;;;;;5075191;28;20472;-73
2022/10/27 10:57:51;;;;;;;19.30;6.63;;;17.40;99.90;;;;;;5074710;28;20032;-73
2022/10/27 11:00:19;;;;;;;18.23;6.57;;;17.50;99.90;;;;;;5075090;28;20025;-72
2022/10/27 11:03:00;;;;;;;23.08;7.38;;;17.40;99.90;;;;;;5074770;28;20062;-72
2022/10/27 11:05:34;;;;;;;21.05;7.10;;;17.40;99.90;;;;;;5074856;28;20387;-72
2022/10/27 11:08:00;;;;;;;15.93;6.38;;;17.40;99.90;;;;;;5073330;28;20055;-73
2022/10/27 11:10:34;;;;;;;22.05;6.93;;;17.30;99.90;;;;;;5074476;28;20379;-72
2022/10/27 11:13:15;;;;;;;23.33;6.75;;;17.40;99.90;;;;;;5074496;28;20499;-72
2022/10/27 11:16:02;;;;;;;22.48;8.05;;;17.50;99.90;;;;;;5074807;28;20108;-72
2022/10/27 11:19:04;;;;;;;15.43;7.38;;;17.50;99.90;;;;;;5074774;28;20029;-72
2022/10/27 11:21:41;;;;;;;19.67;8.68;;;17.40;99.90;;;;;;5056540;28;20021;-72
2022/10/27 11:24:25;;;;;;;20.00;8.18;;;17.40;99.90;;;;;;5074565;28;20027;-73
2022/10/27 11:27:06;;;;;;;19.00;9.30;;;17.40;99.90;;;;;;5070311;28;20483;-72
2022/10/27 11:29:48;;;;;;;28.25;9.30;;;17.40;99.90;;;;;;5072118;28;20224;-74
2022/10/27 11:32:21;;;;;;;17.42;8.20;;;17.50;99.90;;;;;;5067995;28;20365;-72
2022/10/27 11:35:19;;;;;;;20.35;8.20;;;17.60;99.90;;;;;;5065963;28;20112;-72
2022/10/27 11:37:50;;;;;;;19.05;8.13;;;17.60;99.90;;;;;;5065099;28;20032;-72
2022/10/27 11:40:26;;;;;;;25.88;7.93;;;17.70;99.90;;;;;;5067344;28;20480;-72
2022/10/27 11:43:39;;;;;;;28.15;7.97;;;17.70;99.90;;;;;;5072665;28;20492;-72
2022/10/27 11:46:16;;;;;;;27.45;8.05;;;17.90;99.90;;;;;;4983764;28;20533;-72
2022/10/27 11:48:52;;;;;;;16.25;6.80;;;18.00;99.90;;;;;;5060054;28;20043;-72
2022/10/27 11:51:27;;;;;;;13.95;7.20;;;18.20;99.90;;;;;;5072727;28;20060;-73
2022/10/27 11:53:53;;;;;;;18.05;6.68;;;18.20;99.90;;;;;;5067659;28;20028;-72
2022/10/27 11:56:41;;;;;;;18.92;6.43;;;18.40;99.90;;;;;;5073683;28;20035;-73
2022/10/27 11:59:21;;;;;;;18.27;7.45;;;18.40;99.90;;;;;;5066393;28;20488;-73
2022/10/27 12:02:07;;;;;;;18.77;7.45;;;18.40;99.90;;;;;;5061082;28;20035;-72
2022/10/27 12:05:06;;;;;;;18.17;6.95;;;18.30;99.90;;;;;;5064382;28;20412;-72
2022/10/27 12:07:59;;;;;;;21.95;7.50;;;18.20;99.90;;;;;;5063056;28;20719;-72
2022/10/27 12:10:27;;;;;;;20.80;7.17;;;18.30;99.90;;;;;;5065748;28;20036;-72
2022/10/27 12:13:01;;;;;;;18.48;6.47;;;18.40;99.90;;;;;;5062512;28;20024;-73
2022/10/27 12:15:43;;;;;;;18.52;7.47;;;18.50;99.90;;;;;;5072320;28;20456;-72
2022/10/27 12:18:23;;;;;;;17.60;6.45;;;18.80;99.90;;;;;;5060580;28;20052;-72
2022/10/27 12:20:57;;;;;;;9.95;5.55;;;18.90;99.90;;;;;;5070507;28;20036;-73
2022/10/27 12:23:30;;;;;;;16.88;5.43;;;19.00;99.90;;;;;;5071225;28;20100;-71
2022/10/27 12:26:31;;;;;;;20.10;5.43;;;18.90;99.90;;;;;;5051665;28;20028;-73
2022/10/27 12:28:58;;;;;;;19.48;5.50;;;19.10;99.90;;;;;;5069288;28;20036;-73
2022/10/27 12:31:27;;;;;;;18.38;4.93;;;19.10;99.90;;;;;;5071993;28;20506;-73
2022/10/27 12:34:05;;;;;;;19.50;6.20;;;19.10;99.90;;;;;;5071362;28;20033;-72
2022/10/27 12:36:57;;;;;;;13.82;5.70;;;19.00;99.90;;;;;;5066509;28;20039;-72
2022/10/27 12:39:46;;;;;;;18.45;6.20;;;19.00;99.90;;;;;;5068393;28;20040;-72
2022/10/27 12:42:17;;;;;;;13.52;5.10;;;19.20;99.90;;;;;;5070498;28;20031;-72
2022/10/27 12:45:11;;;;;;;14.02;5.35;;;19.30;99.90;;;;;;5073640;28;20494;-72
2022/10/27 12:48:03;;;;;;;12.68;4.85;;;19.20;99.90;;;;;;5071405;28;20038;-71